Time;durP1;ratioP1;P1;durP2;ratioP2;P2;SDS_P1;SDS_P2;PMS_P1;PMS_P2;Temp;Humidity;BMP_temperature;BMP_pressure;BME280_temperature;BME280_humidity;BME280_pressure;Samples;Min_cycle;Max_cycle;Signal;HPM_P1;HPM_P2
2021/12/25 00:00:57;;;;;;;;;;;;;;;-7.16;100.00;100943.06;5008660;28;19971;-73
2021/12/25 00:03:23;;;;;;;;;;;;;;;-7.19;100.00;100944.84;5020584;28;19955;-73
2021/12/25 00:05:52;;;;;;;;;;;;;;;-7.20;100.00;100956.72;5010672;28;19974;-72
2021/12/25 00:08:22;;;;;;;;;;;;;;;-7.20;100.00;100955.91;5015639;28;19913;-73
2021/12/25 00:10:48;;;;;;;;;;;;;;;-7.26;100.00;100965.31;5029181;28;19927;-73
2021/12/25 00:13:14;;;;;;;;;;;;;;;-7.29;100.00;100965.41;5028645;28;19916;-73
2021/12/25 00:15:40;;;;;;;;;;;;;;;-7.27;100.00;100966.22;5004660;28;19917;-73
2021/12/25 00:18:05;;;;;;;;;;;;;;;-7.30;100.00;100973.06;5024310;28;20015;-73
2021/12/25 00:20:31;;;;;;;;;;;;;;;-7.42;100.00;100974.13;5017900;28;19944;-72
2021/12/25 00:22:59;;;;;;;;;;;;;;;-7.43;100.00;100978.38;5013740;28;19917;-72
2021/12/25 00:25:24;;;;;;;;;;;;;;;-7.52;100.00;100983.63;5014459;28;20776;-72
2021/12/25 00:30:23;;;;;;;;;;;;;;;-7.57;100.00;100995.63;5023151;28;19921;-73
2021/12/25 00:32:56;;;;;;;;;;;;;;;-7.60;100.00;101003.31;5016652;28;19956;-74
2021/12/25 00:35:22;;;;;;;;;;;;;;;-7.65;100.00;100995.75;5010003;28;19917;-74
2021/12/25 00:37:48;;;;;;;;;;;;;;;-7.64;100.00;101004.22;5003325;28;19923;-73
2021/12/25 00:40:13;;;;;;;;;;;;;;;-7.64;100.00;101005.06;5024682;28;19920;-73
2021/12/25 00:42:39;;;;;;;;;;;;;;;-7.60;100.00;101005.84;5014954;28;19921;-72
2021/12/25 00:45:05;;;;;;;;;;;;;;;-7.56;100.00;101012.56;5020166;28;20408;-72
2021/12/25 00:47:31;;;;;;;;;;;;;;;-7.52;100.00;101011.66;5023689;28;19924;-73
2021/12/25 00:49:57;;;;;;;;;;;;;;;-7.57;100.00;101020.22;4989059;28;19917;-73
2021/12/25 00:52:22;;;;;;;;;;;;;;;-7.62;100.00;101015.22;5006844;28;20988;-72
2021/12/25 00:54:48;;;;;;;;;;;;;;;-7.58;100.00;101021.94;5022797;28;19917;-71
2021/12/25 00:57:13;;;;;;;;;;;;;;;-7.56;100.00;101021.94;5037358;28;19924;-71
2021/12/25 00:59:39;;;;;;;;;;;;;;;-7.53;100.00;101029.53;4993075;28;20378;-72
2021/12/25 01:02:05;;;;;;;;;;;;;;;-7.50;100.00;101026.91;5012245;28;19924;-72
2021/12/25 01:04:30;;;;;;;;;;;;;;;-7.51;100.00;101035.44;5020871;28;19917;-71
2021/12/25 01:06:57;;;;;;;;;;;;;;;-7.49;100.00;101039.63;5021303;28;19923;-72
2021/12/25 01:09:22;;;;;;;;;;;;;;;-7.54;100.00;101041.41;5017981;28;19917;-72
2021/12/25 01:11:50;;;;;;;;;;;;;;;-7.57;100.00;101045.72;5002975;28;19923;-71
2021/12/25 01:30:23;;;;;;;;;;;;;;;-7.90;100.00;101063.19;5018354;28;19917;-72
2021/12/25 01:39:15;;;;;;;;;;;;;;;-7.93;100.00;101065.75;4961313;28;19918;-73
2021/12/25 01:47:41;;;;;;;;;;;;;;;-7.98;100.00;101063.28;4957039;28;19933;-71
2021/12/25 01:47:56;;;;;;;;;;;;;;;-8.06;100.00;101065.09;5020351;28;19955;-71
2021/12/25 01:50:24;;;;;;;;;;;;;;;-8.11;100.00;101061.78;4992021;28;21079;-72
2021/12/25 01:52:49;;;;;;;;;;;;;;;-8.10;100.00;101068.53;5011862;28;19948;-72
2021/12/25 01:55:26;;;;;;;;;;;;;;;-8.10;100.00;101071.94;5003080;28;19959;-72
2021/12/25 01:57:56;;;;;;;;;;;;;;;-8.10;100.00;101069.41;5008104;28;19917;-70
2021/12/25 02:00:25;;;;;;;;;;;;;;;-8.07;100.00;101076.97;5035847;28;19964;-71
2021/12/25 02:02:51;;;;;;;;;;;;;;;-8.07;100.00;101076.97;5042650;28;19921;-73
2021/12/25 02:05:18;;;;;;;;;;;;;;;-8.06;100.00;101080.34;5004194;28;19975;-72
2021/12/25 02:07:44;;;;;;;;;;;;;;;-8.05;100.00;101089.69;5007791;28;20024;-73
2021/12/25 02:10:10;;;;;;;;;;;;;;;-7.98;100.00;101088.75;5007501;28;19955;-71
2021/12/25 02:12:36;;;;;;;;;;;;;;;-7.98;100.00;101083.66;5013675;28;20454;-74
2021/12/25 02:15:07;;;;;;;;;;;;;;;-7.95;100.00;101093.78;4986670;28;20011;-71
2021/12/25 02:17:54;;;;;;;;;;;;;;;-7.96;100.00;101097.22;5003154;28;20371;-73
2021/12/25 02:20:45;;;;;;;;;;;;;;;-7.97;100.00;101099.78;5007281;28;20433;-72
2021/12/25 02:23:11;;;;;;;;;;;;;;;-7.99;100.00;101093.88;5006917;28;19923;-72
2021/12/25 02:25:37;;;;;;;;;;;;;;;-8.01;100.00;101091.34;5016959;28;19916;-72
2021/12/25 02:28:04;;;;;;;;;;;;;;;-8.02;100.00;101097.31;5037628;28;19918;-73
2021/12/25 02:30:30;;;;;;;;;;;;;;;-7.96;100.00;101093.84;5015154;28;19948;-73
2021/12/25 02:32:58;;;;;;;;;;;;;;;-7.99;100.00;101094.69;4974664;28;20348;-73
2021/12/25 02:35:24;;;;;;;;;;;;;;;-7.99;100.00;101097.25;4994994;28;19986;-72
2021/12/25 02:37:50;;;;;;;;;;;;;;;-7.91;100.00;101099.69;5014820;28;19947;-72
2021/12/25 02:40:16;;;;;;;;;;;;;;;-7.94;100.00;101103.13;5002927;28;20012;-72
2021/12/25 02:42:42;;;;;;;;;;;;;;;-7.94;100.00;101103.13;5023257;28;20012;-72
2021/12/25 02:45:15;;;;;;;;;;;;;;;-7.98;100.00;101103.19;5001228;28;19959;-72
2021/12/25 02:47:43;;;;;;;;;;;;;;;-8.03;100.00;101100.69;5015513;28;20425;-72
2021/12/25 02:50:11;;;;;;;;;;;;;;;-7.99;100.00;101101.50;5019385;28;19917;-72
2021/12/25 02:52:37;;;;;;;;;;;;;;;-8.00;100.00;101100.66;5025040;28;19920;-73
2021/12/25 02:55:03;;;;;;;;;;;;;;;-8.10;100.00;101099.09;5018967;28;19940;-73
2021/12/25 02:57:29;;;;;;;;;;;;;;;-8.16;100.00;101111.91;5032792;28;19970;-72
2021/12/25 02:59:54;;;;;;;;;;;;;;;-8.16;100.00;101107.63;5014259;28;19921;-74
2021/12/25 03:02:20;;;;;;;;;;;;;;;-8.13;100.00;101114.41;5013534;28;20011;-73
2021/12/25 03:04:47;;;;;;;;;;;;;;;-8.14;100.00;101116.09;5015240;28;20401;-72
2021/12/25 03:07:13;;;;;;;;;;;;;;;-8.13;100.00;101112.69;5022510;28;19947;-73
2021/12/25 03:09:40;;;;;;;;;;;;;;;-8.19;100.00;101117.00;5016830;28;20004;-71
2021/12/25 03:12:08;;;;;;;;;;;;;;;-8.27;100.00;101122.19;5015065;28;19922;-72
2021/12/25 03:17:30;;;;;;;;;;;;;;;-8.17;100.00;101122.91;5031159;28;20030;-72
2021/12/25 03:19:58;;;;;;;;;;;;;;;-8.20;100.00;101134.00;5028227;28;19916;-72
2021/12/25 03:22:23;;;;;;;;;;;;;;;-8.22;100.00;101135.72;5010864;28;19928;-73
2021/12/25 03:24:49;;;;;;;;;;;;;;;-8.17;100.00;101133.09;5011752;28;19947;-72
2021/12/25 03:27:16;;;;;;;;;;;;;;;-8.23;100.00;101132.34;5012186;28;20395;-72
2021/12/25 03:29:42;;;;;;;;;;;;;;;-8.29;100.00;101136.63;5015894;28;19960;-72
2021/12/25 03:32:08;;;;;;;;;;;;;;;-8.29;100.00;101129.84;4991830;28;19965;-72
2021/12/25 03:34:35;;;;;;;;;;;;;;;-8.31;100.00;101136.66;5011077;28;20243;-73
2021/12/25 03:37:01;;;;;;;;;;;;;;;-8.37;100.00;101139.28;5026199;28;19919;-73
2021/12/25 03:39:27;;;;;;;;;;;;;;;-8.44;100.00;101142.75;5008821;28;19917;-72
2021/12/25 03:41:54;;;;;;;;;;;;;;;-8.53;100.00;101140.31;5034253;28;19921;-72
2021/12/25 03:44:20;;;;;;;;;;;;;;;-8.59;100.00;101137.84;4990000;28;20362;-73
2021/12/25 03:46:46;;;;;;;;;;;;;;;-8.62;100.00;101139.56;5017337;28;20012;-73
2021/12/25 03:49:26;;;;;;;;;;;;;;;-8.53;100.00;101140.31;5015893;28;20425;-71
2021/12/25 03:57:39;;;;;;;;;;;;;;;-8.44;100.00;101152.94;5011445;28;19917;-74
2021/12/25 04:00:06;;;;;;;;;;;;;;;-8.46;100.00;101154.66;5020618;28;20358;-71
2021/12/25 04:02:52;;;;;;;;;;;;;;;-8.50;100.00;101147.94;5031512;28;20003;-73
2021/12/25 04:05:20;;;;;;;;;;;;;;;-8.50;100.00;101160.66;5003752;28;19924;-72
2021/12/25 04:08:05;;;;;;;;;;;;;;;-8.45;100.00;101158.91;5019876;28;19963;-73
2021/12/25 04:10:36;;;;;;;;;;;;;;;-8.45;100.00;101154.66;5027729;28;20398;-72
2021/12/25 04:13:06;;;;;;;;;;;;;;;-8.50;100.00;101153.00;4986294;28;20416;-71
2021/12/25 04:15:31;;;;;;;;;;;;;;;-8.53;100.00;101155.56;5027298;28;19925;-74
2021/12/25 04:17:57;;;;;;;;;;;;;;;-8.59;100.00;101161.56;5006512;28;19917;-73
2021/12/25 04:20:22;;;;;;;;;;;;;;;-8.56;100.00;101156.47;4994001;28;19990;-72
2021/12/25 04:22:56;;;;;;;;;;;;;;;-8.57;100.00;101157.31;5021375;28;20305;-73
2021/12/25 04:25:27;;;;;;;;;;;;;;;-8.57;100.00;101153.94;5012668;28;19952;-72
2021/12/25 04:27:53;;;;;;;;;;;;;;;-8.56;100.00;101153.91;5015619;28;19999;-72
2021/12/25 04:30:29;;;;;;;;;;;;;;;-8.54;100.00;101153.91;4998665;28;19957;-74
2021/12/25 05:03:21;;;;;;;;;;;;;;;-8.42;100.00;101180.06;5020483;28;19932;-72
2021/12/25 05:06:00;;;;;;;;;;;;;;;-8.48;100.00;101182.66;5017599;28;19921;-72
2021/12/25 05:08:33;;;;;;;;;;;;;;;-8.53;100.00;101181.00;5013458;28;20310;-72
2021/12/25 05:10:59;;;;;;;;;;;;;;;-8.60;100.00;101177.69;5035175;28;19927;-72
2021/12/25 05:13:25;;;;;;;;;;;;;;;-8.55;100.00;101182.72;5024372;28;20381;-73
2021/12/25 05:15:50;;;;;;;;;;;;;;;-8.53;100.00;101183.56;4997907;28;19970;-74
2021/12/25 05:18:16;;;;;;;;;;;;;;;-8.55;100.00;101178.50;5006579;28;19937;-73
2021/12/25 05:20:44;;;;;;;;;;;;;;;-8.54;100.00;101182.72;5025909;28;19920;-72
2021/12/25 05:23:10;;;;;;;;;;;;;;;-8.56;100.00;101178.53;5006638;28;19917;-74
2021/12/25 05:25:37;;;;;;;;;;;;;;;-8.75;100.00;101178.69;5033461;28;19943;-73
2021/12/25 05:28:05;;;;;;;;;;;;;;;-8.87;100.00;101169.47;5030860;28;19916;-72
2021/12/25 05:30:30;;;;;;;;;;;;;;;-8.93;100.00;101174.56;5023336;28;19979;-73
2021/12/25 05:33:14;;;;;;;;;;;;;;;-9.03;100.00;101176.34;5017857;28;20004;-72
2021/12/25 05:36:01;;;;;;;;;;;;;;;-9.06;100.00;101171.31;5008826;28;19999;-73
2021/12/25 05:38:37;;;;;;;;;;;;;;;-9.07;100.00;101161.16;5023525;28;20341;-72
2021/12/25 05:41:13;;;;;;;;;;;;;;;-9.08;100.00;101173.03;5029778;28;20381;-73
2021/12/25 05:43:39;;;;;;;;;;;;;;;-9.01;100.00;101174.63;5018279;28;19961;-73
2021/12/25 05:46:05;;;;;;;;;;;;;;;-8.92;100.00;101172.91;4992498;28;19924;-74
2021/12/25 05:48:35;;;;;;;;;;;;;;;-8.84;100.00;101173.66;4994660;28;20290;-72
2021/12/25 05:51:24;;;;;;;;;;;;;;;-8.80;100.00;101177.88;4984708;28;19917;-73
2021/12/25 05:54:05;;;;;;;;;;;;;;;-8.82;100.00;101179.59;5024442;28;19927;-72
2021/12/25 05:56:45;;;;;;;;;;;;;;;-8.89;100.00;101183.91;5010507;28;19921;-73
2021/12/25 05:59:30;;;;;;;;;;;;;;;-8.93;100.00;101181.38;5025166;28;20049;-73
2021/12/25 06:02:15;;;;;;;;;;;;;;;-8.92;100.00;101186.44;5006159;28;19928;-73
2021/12/25 06:04:43;;;;;;;;;;;;;;;-8.90;100.00;101186.44;5030395;28;20541;-74
2021/12/25 06:07:09;;;;;;;;;;;;;;;-8.90;100.00;101199.16;4987175;28;19921;-74
2021/12/25 06:09:34;;;;;;;;;;;;;;;-8.91;100.00;101200.00;5030412;28;20412;-73
2021/12/25 06:12:06;;;;;;;;;;;;;;;-8.94;100.00;101189.88;5028399;28;19917;-73
2021/12/25 06:14:31;;;;;;;;;;;;;;;-8.99;100.00;101192.44;5023884;28;19994;-73
2021/12/25 06:17:07;;;;;;;;;;;;;;;-8.91;100.00;101197.44;5000667;28;19953;-73
2021/12/25 06:19:45;;;;;;;;;;;;;;;-8.89;100.00;101200.81;5026056;28;20013;-73
2021/12/25 06:22:28;;;;;;;;;;;;;;;-8.85;100.00;101194.88;4997262;28;19918;-72
2021/12/25 06:25:06;;;;;;;;;;;;;;;-8.84;100.00;101196.56;5005605;28;20027;-74
2021/12/25 06:27:56;;;;;;;;;;;;;;;-8.77;100.00;101198.19;5010704;28;19913;-73
2021/12/25 06:30:47;;;;;;;;;;;;;;;-8.82;100.00;101197.38;5001880;28;19967;-73
2021/12/25 06:33:17;;;;;;;;;;;;;;;-8.78;100.00;101195.66;5015170;28;19928;-73
2021/12/25 06:36:01;;;;;;;;;;;;;;;-8.83;100.00;101199.09;5020017;28;20036;-72
2021/12/25 06:38:47;;;;;;;;;;;;;;;-8.82;100.00;101197.38;5014532;28;19967;-73
2021/12/25 06:41:31;;;;;;;;;;;;;;;-8.81;100.00;101199.91;5030689;28;20004;-73
2021/12/25 06:43:57;;;;;;;;;;;;;;;-8.79;100.00;101204.16;5032679;28;19963;-72
2021/12/25 06:46:34;;;;;;;;;;;;;;;-8.80;100.00;101213.47;5028059;28;20064;-72
2021/12/25 06:48:59;;;;;;;;;;;;;;;-8.87;100.00;101210.16;5021437;28;20023;-73
2021/12/25 06:51:51;;;;;;;;;;;;;;;-8.82;100.00;101213.47;5028833;28;19967;-74
2021/12/25 06:54:29;;;;;;;;;;;;;;;-8.89;100.00;101216.06;4995324;28;20067;-71
2021/12/25 06:57:14;;;;;;;;;;;;;;;-8.94;100.00;101203.41;5016607;28;19925;-72
2021/12/25 06:59:40;;;;;;;;;;;;;;;-9.02;100.00;101208.56;4977628;28;19913;-73
2021/12/25 07:02:05;;;;;;;;;;;;;;;-9.05;100.00;101211.13;5015998;28;19928;-73
2021/12/25 07:04:49;;;;;;;;;;;;;;;-9.02;100.00;101213.66;5014711;28;19924;-73
2021/12/25 07:07:30;;;;;;;;;;;;;;;-8.97;100.00;101216.13;5010883;28;19948;-72
2021/12/25 07:10:19;;;;;;;;;;;;;;;-8.92;100.00;101226.28;5002429;28;20011;-72
2021/12/25 07:12:54;;;;;;;;;;;;;;;-8.94;100.00;101221.22;5021106;28;20004;-73
2021/12/25 07:15:34;;;;;;;;;;;;;;;-8.96;100.00;101224.63;5024185;28;20505;-73
2021/12/25 07:18:18;;;;;;;;;;;;;;;-8.97;100.00;101228.00;4999468;28;20381;-73
2021/12/25 07:21:03;;;;;;;;;;;;;;;-8.94;100.00;101233.09;5014577;28;19971;-72
2021/12/25 07:23:50;;;;;;;;;;;;;;;-8.93;100.00;101245.75;5004893;28;19939;-73
2021/12/25 07:26:32;;;;;;;;;;;;;;;-8.90;100.00;101239.84;5006989;28;19917;-73
2021/12/25 07:29:19;;;;;;;;;;;;;;;-8.84;100.00;101239.78;5026695;28;19924;-73
2021/12/25 07:31:45;;;;;;;;;;;;;;;-8.83;100.00;101241.47;5012156;28;19921;-73
2021/12/25 07:34:10;;;;;;;;;;;;;;;-8.89;100.00;101249.13;5018218;28;19992;-72
2021/12/25 07:36:36;;;;;;;;;;;;;;;-8.93;100.00;101255.94;4990637;28;19921;-72
2021/12/25 07:39:02;;;;;;;;;;;;;;;-8.97;100.00;101254.28;5014008;28;20603;-71
2021/12/25 07:41:27;;;;;;;;;;;;;;;-8.97;100.00;101250.91;5047683;28;19921;-73
2021/12/25 07:43:53;;;;;;;;;;;;;;;-9.03;100.00;101257.69;5023695;28;19932;-72
2021/12/25 07:46:37;;;;;;;;;;;;;;;-9.11;100.00;101256.06;5005110;28;19924;-74
2021/12/25 07:49:04;;;;;;;;;;;;;;;-9.16;100.00;101252.72;5002199;28;19917;-71
2021/12/25 07:51:30;;;;;;;;;;;;;;;-9.11;100.00;101256.91;5011525;28;19924;-72
2021/12/25 07:53:56;;;;;;;;;;;;;;;-9.11;100.00;101256.06;5030319;28;19916;-73
2021/12/25 07:56:26;;;;;;;;;;;;;;;-9.07;100.00;101260.28;5025757;28;19917;-72
2021/12/25 07:58:52;;;;;;;;;;;;;;;-9.03;100.00;101264.47;5012953;28;19963;-73
2021/12/25 08:01:19;;;;;;;;;;;;;;;-8.96;100.00;101261.06;5013354;28;19921;-71
2021/12/25 08:03:44;;;;;;;;;;;;;;;-8.91;100.00;101263.56;5018267;28;19917;-73
2021/12/25 08:06:10;;;;;;;;;;;;;;;-8.86;100.00;101266.91;5023370;28;19913;-72
2021/12/25 08:08:35;;;;;;;;;;;;;;;-8.88;100.00;101271.19;5006972;28;19999;-73
2021/12/25 08:11:01;;;;;;;;;;;;;;;-8.75;100.00;101282.13;5026407;28;20055;-72
2021/12/25 08:13:26;;;;;;;;;;;;;;;-8.72;100.00;101282.94;5014228;28;20413;-71
2021/12/25 08:15:52;;;;;;;;;;;;;;;-8.61;100.00;101293.00;4999745;28;19917;-73
2021/12/25 08:18:17;;;;;;;;;;;;;;;-8.56;100.00;101290.44;5022036;28;20270;-73
2021/12/25 08:21:04;;;;;;;;;;;;;;;-8.50;100.00;101290.41;5015461;28;19971;-73
2021/12/25 08:23:49;;;;;;;;;;;;;;;-8.48;100.00;101294.59;5008242;28;19971;-74
2021/12/25 08:26:36;;;;;;;;;;;;;;;-8.47;100.00;101295.47;5012799;28;19975;-72
2021/12/25 08:29:20;;;;;;;;;;;;;;;-8.46;100.00;101287.81;5013361;28;19917;-72
2021/12/25 08:32:25;;;;;;;;;;;;;;;-8.37;100.00;101288.56;4979109;28;20012;-73
2021/12/25 08:35:19;;;;;;;;;;;;;;;-8.29;100.00;101285.09;4990338;28;20384;-70
2021/12/25 08:37:45;;;;;;;;;;;;;;;-8.22;100.00;101278.25;5012752;28;20413;-71
2021/12/25 08:40:12;;;;;;;;;;;;;;;-8.17;100.00;101283.28;5037086;28;19916;-74
2021/12/25 08:42:44;;;;;;;;;;;;;;;-8.13;100.00;101279.88;5037189;28;20008;-72
2021/12/25 08:45:30;;;;;;;;;;;;;;;-8.00;100.00;101286.53;5008976;28;19942;-72
2021/12/25 08:47:56;;;;;;;;;;;;;;;-7.81;100.00;101299.91;5017466;28;19960;-72
2021/12/25 08:50:22;;;;;;;;;;;;;;;-7.68;100.00;101303.19;5014709;28;20881;-73
2021/12/25 08:52:49;;;;;;;;;;;;;;;-7.57;100.00;101295.41;5000994;28;19923;-72
2021/12/25 08:55:14;;;;;;;;;;;;;;;-7.50;100.00;101297.03;5018347;28;19924;-72
2021/12/25 08:57:40;;;;;;;;;;;;;;;-7.44;100.00;101287.63;5018931;28;19916;-73
2021/12/25 09:00:06;;;;;;;;;;;;;;;-7.37;100.00;101287.53;5029225;28;19917;-72
2021/12/25 09:02:32;;;;;;;;;;;;;;;-7.34;100.00;101295.16;5028398;28;19921;-74
2021/12/25 09:04:57;;;;;;;;;;;;;;;-7.33;100.00;101302.75;5019875;28;19917;-71
2021/12/25 09:07:23;;;;;;;;;;;;;;;-7.23;100.00;101306.06;5002418;28;19928;-72
2021/12/25 09:09:48;;;;;;;;;;;;;;;-7.17;100.00;101305.97;5022501;28;20286;-71
2021/12/25 09:12:16;;;;;;;;;;;;;;;-7.11;100.00;101310.97;5033365;28;19955;-73
2021/12/25 09:14:42;;;;;;;;;;;;;;;-7.06;100.00;101314.31;5011660;28;19916;-72
2021/12/25 09:17:08;;;;;;;;;;;;;;;-6.98;100.00;101323.56;5017917;28;19917;-72
2021/12/25 09:19:34;;;;;;;;;;;;;;;-6.90;100.00;101325.16;5026751;28;20356;-71
2021/12/25 09:22:00;;;;;;;;;;;;;;;-6.75;100.00;101325.81;5026167;28;19921;-73
2021/12/25 09:24:26;;;;;;;;;;;;;;;-6.63;100.00;101312.84;5013262;28;19917;-72
2021/12/25 09:26:51;;;;;;;;;;;;;;;-6.50;100.00;101321.16;4986328;28;19963;-72
2021/12/25 09:29:17;;;;;;;;;;;;;;;-6.39;100.00;101321.84;5015497;28;20434;-72
2021/12/25 09:31:42;;;;;;;;;;;;;;;-6.30;100.00;101331.06;5021205;28;20429;-73
2021/12/25 09:34:08;;;;;;;;;;;;;;;-6.20;100.00;101336.88;5006991;28;20450;-74
2021/12/25 09:36:34;;;;;;;;;;;;;;;-6.13;100.00;101341.03;5032655;28;19921;-74
2021/12/25 09:39:01;;;;;;;;;;;;;;;-6.03;100.00;101336.59;5007875;28;20372;-72
2021/12/25 09:41:26;;;;;;;;;;;;;;;-5.94;100.00;101331.28;5032822;28;20649;-72
2021/12/25 09:43:52;;;;;;;;;;;;;;;-5.87;100.00;101336.28;5001892;28;19913;-72
2021/12/25 09:46:20;;;;;;;;;;;;;;;-5.59;100.00;101338.34;5005144;28;19943;-72
2021/12/25 09:48:47;;;;;;;;;;;;;;;-5.47;100.00;101337.25;5002202;28;20341;-72
2021/12/25 09:51:13;;;;;;;;;;;;;;;-5.36;100.00;101343.00;5024731;28;19917;-72
2021/12/25 09:53:39;;;;;;;;;;;;;;;-5.39;100.00;101340.47;5021640;28;19923;-72
2021/12/25 09:56:05;;;;;;;;;;;;;;;-5.47;100.00;101342.34;5019943;28;19917;-74
2021/12/25 09:58:30;;;;;;;;;;;;;;;-5.48;100.00;101340.69;5024821;28;20011;-72
2021/12/25 10:00:57;;;;;;;;;;;;;;;-5.48;100.00;101344.09;5024595;28;19917;-72
2021/12/25 10:03:23;;;;;;;;;;;;;;;-5.40;100.00;101343.09;5017156;28;20913;-73
2021/12/25 10:05:50;;;;;;;;;;;;;;;-5.25;100.00;101329.16;5024701;28;20032;-72
2021/12/25 10:08:17;;;;;;;;;;;;;;;-5.13;100.00;101349.34;5036916;28;19943;-74
2021/12/25 10:10:46;;;;;;;;;;;;;;;-5.18;100.00;101361.41;5019839;28;19920;-71
2021/12/25 10:13:30;;;;;;;;;;;;;;;-5.11;100.00;101353.56;4989933;28;19960;-73
2021/12/25 10:15:57;;;;;;;;;;;;;;;-4.95;100.00;101341.31;5000832;28;19917;-72
2021/12/25 10:18:27;;;;;;;;;;;;;;;-4.97;100.00;101340.50;5018937;28;19916;-72
2021/12/25 10:20:53;;;;;;;;;;;;;;;-4.89;100.00;101342.91;5016269;28;19917;-72
2021/12/25 10:23:25;;;;;;;;;;;;;;;-4.74;100.00;101347.66;5022088;28;20361;-73
2021/12/25 10:25:58;;;;;;;;;;;;;;;-4.74;100.00;101349.41;5010363;28;19944;-72
2021/12/25 10:28:30;;;;;;;;;;;;;;;-4.83;100.00;101352.16;5005618;28;20083;-72
2021/12/25 10:31:00;;;;;;;;;;;;;;;-4.79;100.00;101346.91;5011645;28;19917;-72
2021/12/25 10:33:26;;;;;;;;;;;;;;;-4.72;100.00;101339.97;4991535;28;19916;-72
2021/12/25 10:35:52;;;;;;;;;;;;;;;-4.69;100.00;101339.88;5013575;28;19913;-72
2021/12/25 10:38:17;;;;;;;;;;;;;;;-4.58;99.77;101331.97;5023991;28;19921;-72
2021/12/25 10:40:43;;;;;;;;;;;;;;;-4.46;100.00;101330.81;5025878;28;20282;-74
2021/12/25 10:43:19;;;;;;;;;;;;;;;-4.36;100.00;101330.59;5028860;28;20569;-72
2021/12/25 10:45:57;;;;;;;;;;;;;;;-4.31;100.00;101327.94;4992776;28;19992;-73
2021/12/25 10:48:25;;;;;;;;;;;;;;;-4.34;100.00;101328.81;5022099;28;19917;-73
2021/12/25 10:50:51;;;;;;;;;;;;;;;-4.33;100.00;101333.09;5024064;28;20015;-73
2021/12/25 10:53:31;;;;;;;;;;;;;;;-4.33;100.00;101333.09;5022710;28;20021;-71
2021/12/25 10:56:08;;;;;;;;;;;;;;;-4.24;100.00;101329.44;5026380;28;19921;-72
2021/12/25 10:58:33;;;;;;;;;;;;;;;-4.14;100.00;101337.75;4996078;28;19984;-72
2021/12/25 11:00:59;;;;;;;;;;;;;;;-4.11;100.00;101341.09;5038676;28;20518;-73
2021/12/25 11:03:27;;;;;;;;;;;;;;;-4.05;100.00;101329.84;5018085;28;19925;-73
2021/12/25 11:05:52;;;;;;;;;;;;;;;-3.98;100.00;101333.09;5043159;28;19984;-72
2021/12/25 11:08:22;;;;;;;;;;;;;;;-3.91;100.00;101332.88;5027701;28;19984;-71
2021/12/25 11:11:08;;;;;;;;;;;;;;;-3.84;100.00;101332.72;5035372;28;20564;-72
2021/12/25 11:13:33;;;;;;;;;;;;;;;-3.81;100.00;101330.09;5040985;28;19927;-74
2021/12/25 11:16:04;;;;;;;;;;;;;;;-3.76;100.00;101323.94;5030000;28;19921;-73
2021/12/25 11:18:52;;;;;;;;;;;;;;;-3.73;100.00;101317.88;5030230;28;19963;-72
2021/12/25 11:21:18;;;;;;;;;;;;;;;-3.59;100.00;101320.09;5017877;28;20338;-72
2021/12/25 11:23:45;;;;;;;;;;;;;;;-3.61;99.92;101325.28;5025606;28;20457;-72
2021/12/25 11:26:12;;;;;;;;;;;;;;;-3.59;100.00;101325.22;5014983;28;19924;-74
2021/12/25 11:28:38;;;;;;;;;;;;;;;-3.46;100.00;101318.88;5028639;28;19952;-72
2021/12/25 11:31:04;;;;;;;;;;;;;;;-3.43;100.00;101317.94;5028109;28;19917;-72
2021/12/25 11:33:29;;;;;;;;;;;;;;;-3.36;100.00;101315.16;5022415;28;19917;-72
2021/12/25 11:35:55;;;;;;;;;;;;;;;-3.28;99.98;101314.09;5021746;28;19917;-73
2021/12/25 11:38:20;;;;;;;;;;;;;;;-3.29;98.92;101308.16;5022210;28;20382;-72
2021/12/25 11:40:51;;;;;;;;;;;;;;;-3.21;98.92;101316.44;5025115;28;19939;-72
2021/12/25 11:43:32;;;;;;;;;;;;;;;-3.15;99.24;101328.25;5020646;28;20006;-74
2021/12/25 11:45:58;;;;;;;;;;;;;;;-3.22;98.87;101326.75;5018182;28;20007;-72
2021/12/25 11:48:23;;;;;;;;;;;;;;;-3.33;98.71;101322.78;5029221;28;20060;-73
2021/12/25 11:50:52;;;;;;;;;;;;;;;-3.25;98.32;101329.44;5004473;28;20006;-72
2021/12/25 11:53:30;;;;;;;;;;;;;;;-3.34;99.75;101333.09;5021517;28;20059;-72
2021/12/25 11:58:41;;;;;;;;;;;;;;;-3.28;98.78;101330.34;5013003;28;19924;-72
2021/12/25 12:01:20;;;;;;;;;;;;;;;-3.28;99.11;101330.34;5014729;28;19964;-73
2021/12/25 12:03:52;;;;;;;;;;;;;;;-3.19;99.19;101330.06;5020155;28;19918;-71
2021/12/25 12:06:18;;;;;;;;;;;;;;;-3.14;98.80;101330.78;5022354;28;20313;-73
2021/12/25 12:08:52;;;;;;;;;;;;;;;-3.06;98.84;101319.47;5026261;28;20374;-74
2021/12/25 12:11:43;;;;;;;;;;;;;;;-2.96;97.68;101326.00;5006000;28;19923;-74
2021/12/25 12:14:28;;;;;;;;;;;;;;;-3.02;98.33;101315.91;5007950;28;20378;-72
2021/12/25 12:17:23;;;;;;;;;;;;;;;-2.98;98.00;101320.06;5023288;28;20039;-73
2021/12/25 12:19:52;;;;;;;;;;;;;;;-3.01;97.53;101322.75;5023599;28;19916;-72
2021/12/25 12:27:37;;;;;;;;;;;;;;;-2.96;98.25;101310.59;5008675;28;19940;-72
2021/12/25 12:30:07;;;;;;;;;;;;;;;-2.90;97.27;101305.31;5009909;28;20140;-72
2021/12/25 12:32:35;;;;;;;;;;;;;;;-2.87;97.68;101319.75;5024666;28;19919;-72
2021/12/25 12:35:01;;;;;;;;;;;;;;;-2.84;97.51;101301.69;5021033;28;19917;-74
2021/12/25 12:37:27;;;;;;;;;;;;;;;-2.72;96.50;101309.00;5030311;28;19923;-72
2021/12/25 12:39:53;;;;;;;;;;;;;;;-2.74;97.74;101305.66;5027251;28;19917;-74
2021/12/25 12:42:19;;;;;;;;;;;;;;;-2.62;97.95;101307.84;5017325;28;19924;-72
2021/12/25 12:44:47;;;;;;;;;;;;;;;-2.64;97.49;101311.34;5013935;28;19967;-72
2021/12/25 12:47:19;;;;;;;;;;;;;;;-2.61;97.21;101314.66;5010031;28;19913;-72
2021/12/25 12:49:45;;;;;;;;;;;;;;;-2.63;97.13;101311.31;5035666;28;20297;-71
2021/12/25 12:52:15;;;;;;;;;;;;;;;-2.66;96.73;101310.56;5019318;28;19917;-74
2021/12/25 12:54:55;;;;;;;;;;;;;;;-2.64;97.13;101316.47;5018415;28;20000;-73
2021/12/25 12:57:21;;;;;;;;;;;;;;;-2.67;96.86;101314.84;5008331;28;20476;-72
2021/12/25 12:59:51;;;;;;;;;;;;;;;-2.60;96.88;101321.50;5016580;28;19917;-72
2021/12/25 13:02:18;;;;;;;;;;;;;;;-2.63;96.69;101320.75;4999687;28;19982;-71
2021/12/25 13:04:51;;;;;;;;;;;;;;;-2.61;96.29;101330.06;5013836;28;19944;-74
2021/12/25 13:07:19;;;;;;;;;;;;;;;-2.68;97.34;101336.28;4999905;28;19917;-73
2021/12/25 13:09:52;;;;;;;;;;;;;;;-2.76;98.90;101338.25;5009432;28;19964;-73
2021/12/25 13:12:34;;;;;;;;;;;;;;;-2.78;98.04;101334.88;5038724;28;19927;-71
2021/12/25 13:15:01;;;;;;;;;;;;;;;-2.78;98.43;101333.16;4993831;28;19924;-71
2021/12/25 13:17:26;;;;;;;;;;;;;;;-2.64;97.83;101331.88;5001374;28;20296;-72
2021/12/25 13:19:54;;;;;;;;;;;;;;;-2.57;96.88;101336.78;4997353;28;20367;-72
2021/12/25 13:22:20;;;;;;;;;;;;;;;-2.33;96.45;101331.78;5023902;28;19921;-72
2021/12/25 13:24:47;;;;;;;;;;;;;;;-2.25;94.04;101329.78;5038217;28;19939;-74
2021/12/25 13:27:17;;;;;;;;;;;;;;;-2.04;94.22;101332.53;5004474;28;19913;-71
2021/12/25 13:29:43;;;;;;;;;;;;;;;-1.83;93.74;101342.13;5016110;28;19917;-72
2021/12/25 13:32:08;;;;;;;;;;;;;;;-1.58;92.08;101342.09;5012971;28;19942;-72
2021/12/25 13:34:36;;;;;;;;;;;;;;;-1.57;90.90;101346.34;5019013;28;19919;-72
2021/12/25 13:37:03;;;;;;;;;;;;;;;-1.55;90.96;101346.28;5017835;28;20761;-73
2021/12/25 13:39:31;;;;;;;;;;;;;;;-1.33;89.22;101345.53;5018201;28;19921;-73
2021/12/25 13:42:05;;;;;;;;;;;;;;;-1.46;89.06;101343.41;5038230;28;19921;-71
2021/12/25 13:44:35;;;;;;;;;;;;;;;-1.57;89.63;101345.50;5025692;28;19943;-73
2021/12/25 13:47:05;;;;;;;;;;;;;;;-1.77;91.22;101338.50;5015438;28;19917;-72
2021/12/25 13:49:41;;;;;;;;;;;;;;;-2.01;92.96;101333.28;5026655;28;19916;-73
2021/12/25 13:52:19;;;;;;;;;;;;;;;-2.30;93.75;101334.22;5028045;28;19917;-72
2021/12/25 13:54:46;;;;;;;;;;;;;;;-2.47;93.86;101334.75;5019796;28;19966;-73
2021/12/25 13:57:13;;;;;;;;;;;;;;;-2.60;93.75;101331.75;5011395;28;20016;-71
2021/12/25 13:59:38;;;;;;;;;;;;;;;-2.81;95.30;101338.38;5024815;28;19947;-71